Time;durP1;ratioP1;P1;durP2;ratioP2;P2;SDS_P1;SDS_P2;PMS_P1;PMS_P2;Temp;Humidity;BMP_temperature;BMP_pressure;BME280_temperature;BME280_humidity;BME280_pressure;Samples;Min_cycle;Max_cycle;Signal;HPM_P1;HPM_P2
2021/03/29 00:00:29;;;;;;;11.30;4.72;;;8.80;99.90;;;;;;5095099;28;20036;-71
2021/03/29 00:02:55;;;;;;;12.55;4.63;;;8.90;99.90;;;;;;5094645;28;20479;-71
2021/03/29 00:05:23;;;;;;;12.15;4.15;;;8.80;99.90;;;;;;5094822;28;20093;-72
2021/03/29 00:07:53;;;;;;;10.13;4.07;;;8.80;99.90;;;;;;5095023;28;20145;-71
2021/03/29 00:10:20;;;;;;;9.00;4.10;;;8.80;99.90;;;;;;5094478;28;20020;-70
2021/03/29 00:12:48;;;;;;;13.77;4.13;;;8.90;99.90;;;;;;5094804;28;20525;-71
2021/03/29 00:15:18;;;;;;;12.05;4.47;;;8.80;99.90;;;;;;5094674;28;20027;-71
2021/03/29 00:17:44;;;;;;;13.43;4.85;;;8.80;99.90;;;;;;5094293;28;20124;-72
2021/03/29 00:20:17;;;;;;;12.60;4.47;;;8.90;99.90;;;;;;5108810;28;20498;-71
2021/03/29 00:22:43;;;;;;;12.05;4.22;;;8.80;99.90;;;;;;5095318;28;20028;-72
2021/03/29 00:25:16;;;;;;;7.57;4.35;;;8.80;99.90;;;;;;5094175;28;20477;-72
2021/03/29 00:27:43;;;;;;;10.15;4.80;;;8.80;99.90;;;;;;5094840;28;20028;-72
2021/03/29 00:30:11;;;;;;;10.63;4.13;;;8.80;99.90;;;;;;5094766;28;20367;-72
2021/03/29 00:32:37;;;;;;;11.52;4.28;;;8.80;99.90;;;;;;5094445;28;20028;-71
2021/03/29 00:35:04;;;;;;;18.13;5.00;;;8.70;99.90;;;;;;5094242;28;20028;-71
2021/03/29 00:37:31;;;;;;;14.50;5.00;;;8.70;99.90;;;;;;5094707;28;20024;-71
2021/03/29 00:39:57;;;;;;;9.45;4.25;;;8.60;99.90;;;;;;5093818;28;20383;-71
2021/03/29 00:42:24;;;;;;;7.45;4.78;;;8.60;99.90;;;;;;5094212;28;20024;-72
2021/03/29 00:44:50;;;;;;;9.55;4.18;;;8.60;99.90;;;;;;5093928;28;20024;-71
2021/03/29 00:47:16;;;;;;;9.90;4.20;;;8.50;99.90;;;;;;5093923;28;20158;-71
2021/03/29 00:49:41;;;;;;;10.48;5.50;;;8.40;99.90;;;;;;5093699;28;20024;-71
2021/03/29 00:52:08;;;;;;;10.88;4.65;;;8.40;99.90;;;;;;5093889;28;20017;-71
2021/03/29 00:54:35;;;;;;;14.15;5.80;;;8.40;99.90;;;;;;5095297;28;20020;-71
2021/03/29 00:57:04;;;;;;;19.98;6.38;;;8.40;99.90;;;;;;5095232;28;20487;-72
2021/03/29 00:59:31;;;;;;;8.48;5.22;;;8.40;99.90;;;;;;5094983;28;20379;-72
2021/03/29 01:01:57;;;;;;;19.60;6.05;;;8.30;99.90;;;;;;5094922;28;20119;-71
2021/03/29 01:04:23;;;;;;;18.70;6.30;;;8.40;99.90;;;;;;5099264;28;20061;-70
2021/03/29 01:06:51;;;;;;;14.60;5.72;;;8.30;99.90;;;;;;5096880;28;20024;-72
2021/03/29 01:09:21;;;;;;;17.83;6.22;;;8.40;99.90;;;;;;5093881;28;20107;-71
2021/03/29 01:11:51;;;;;;;13.18;6.07;;;8.30;99.90;;;;;;5093954;28;20032;-71
2021/03/29 01:14:28;;;;;;;7.68;5.45;;;8.40;99.90;;;;;;5093189;28;20016;-71
2021/03/29 01:16:59;;;;;;;17.73;5.85;;;8.30;99.90;;;;;;5094006;28;20384;-71
2021/03/29 01:19:46;;;;;;;15.00;6.60;;;8.30;99.90;;;;;;5093283;28;20534;-71
2021/03/29 01:22:17;;;;;;;16.48;6.82;;;8.30;99.90;;;;;;5092727;28;20039;-70
2021/03/29 01:24:51;;;;;;;13.98;6.20;;;8.20;99.90;;;;;;5094125;28;20027;-71
2021/03/29 01:27:20;;;;;;;15.40;6.40;;;8.20;99.90;;;;;;5099771;28;20020;-71
2021/03/29 01:29:48;;;;;;;14.90;6.38;;;8.20;99.90;;;;;;5113717;28;20038;-72
2021/03/29 01:32:14;;;;;;;14.57;7.30;;;8.20;99.90;;;;;;5093765;28;20056;-72
2021/03/29 01:34:41;;;;;;;9.57;5.45;;;8.10;99.90;;;;;;5093018;28;20476;-71
2021/03/29 01:37:08;;;;;;;11.30;6.18;;;8.10;99.90;;;;;;5092944;28;20028;-71
2021/03/29 01:39:35;;;;;;;15.32;6.55;;;8.20;99.90;;;;;;5093563;28;20027;-71
2021/03/29 01:42:02;;;;;;;11.68;5.55;;;8.20;99.90;;;;;;5092486;28;20028;-70
2021/03/29 01:44:28;;;;;;;16.33;5.88;;;8.20;99.90;;;;;;5092867;28;20107;-71
2021/03/29 01:46:55;;;;;;;12.43;5.45;;;8.30;99.90;;;;;;5093184;28;20218;-71
2021/03/29 01:49:22;;;;;;;18.63;5.30;;;8.40;99.90;;;;;;5092488;28;20024;-71
2021/03/29 01:51:49;;;;;;;9.30;5.15;;;8.40;99.90;;;;;;5092705;28;20070;-72
2021/03/29 01:54:16;;;;;;;12.40;5.47;;;8.40;99.90;;;;;;5092823;28;20024;-71
2021/03/29 01:56:41;;;;;;;14.52;5.50;;;8.40;99.90;;;;;;5092676;28;20494;-70
2021/03/29 01:59:08;;;;;;;17.48;5.60;;;8.50;99.90;;;;;;5092341;28;20028;-70
2021/03/29 02:01:33;;;;;;;15.13;5.53;;;8.50;99.90;;;;;;5092670;28;20360;-70
2021/03/29 02:03:59;;;;;;;18.02;5.35;;;8.60;99.90;;;;;;5092402;28;20024;-71
2021/03/29 02:06:26;;;;;;;19.85;4.82;;;8.60;99.90;;;;;;5092888;28;20016;-70
2021/03/29 02:08:52;;;;;;;14.98;5.45;;;8.70;99.90;;;;;;5092994;28;20020;-72
2021/03/29 02:11:19;;;;;;;13.88;5.28;;;8.80;99.90;;;;;;5097515;28;20023;-72
2021/03/29 02:13:49;;;;;;;13.95;4.50;;;8.90;99.90;;;;;;5095187;28;20020;-71
2021/03/29 02:16:16;;;;;;;15.40;7.30;;;8.90;99.90;;;;;;5091825;28;20476;-71
2021/03/29 02:18:44;;;;;;;11.52;4.88;;;8.90;99.90;;;;;;5092321;28;20109;-71
2021/03/29 02:21:26;;;;;;;11.25;5.03;;;8.90;99.90;;;;;;5104292;28;20063;-71
2021/03/29 02:23:56;;;;;;;15.98;5.30;;;8.90;99.90;;;;;;5092370;28;20062;-71
2021/03/29 02:26:23;;;;;;;9.63;4.72;;;8.90;99.90;;;;;;5092129;28;20353;-70
2021/03/29 02:28:49;;;;;;;15.48;5.60;;;9.00;99.90;;;;;;5096582;28;20058;-71
2021/03/29 02:31:16;;;;;;;11.60;5.05;;;9.00;99.90;;;;;;5100647;28;20064;-71
2021/03/29 02:33:44;;;;;;;10.02;4.43;;;9.00;99.90;;;;;;5092263;28;20027;-70
2021/03/29 02:36:11;;;;;;;13.32;4.80;;;9.10;99.90;;;;;;5092287;28;20021;-71
2021/03/29 02:38:36;;;;;;;9.13;4.53;;;9.20;99.90;;;;;;5091781;28;20032;-71
2021/03/29 02:41:03;;;;;;;9.32;4.55;;;9.20;99.90;;;;;;5091848;28;20032;-71
2021/03/29 02:43:30;;;;;;;16.13;5.72;;;9.10;99.90;;;;;;5092439;28;20065;-71
2021/03/29 02:45:59;;;;;;;13.80;4.45;;;9.20;99.90;;;;;;5096227;28;20459;-72
2021/03/29 02:48:27;;;;;;;10.90;4.72;;;9.20;99.90;;;;;;5100695;28;20051;-71
2021/03/29 02:50:56;;;;;;;14.50;4.47;;;9.30;99.90;;;;;;5091922;28;20024;-70
2021/03/29 02:53:30;;;;;;;11.57;4.75;;;9.20;99.90;;;;;;5091033;28;20031;-71
2021/03/29 02:56:00;;;;;;;12.43;3.95;;;9.20;99.90;;;;;;5091901;28;20028;-71
2021/03/29 02:58:28;;;;;;;13.02;4.90;;;9.20;99.90;;;;;;5091374;28;20020;-71
2021/03/29 03:00:55;;;;;;;13.57;5.50;;;9.30;99.90;;;;;;5091677;28;20119;-72
2021/03/29 03:03:21;;;;;;;14.25;4.55;;;9.30;99.90;;;;;;5091806;28;20474;-70
2021/03/29 03:05:50;;;;;;;14.07;4.55;;;9.30;99.90;;;;;;5091396;28;20024;-70
2021/03/29 03:08:16;;;;;;;14.05;5.15;;;9.30;99.90;;;;;;5091503;28;20093;-71
2021/03/29 03:10:43;;;;;;;13.50;4.78;;;9.30;99.90;;;;;;5091828;28;20119;-71
2021/03/29 03:13:10;;;;;;;11.30;5.30;;;9.30;99.90;;;;;;5090567;28;20072;-71
2021/03/29 03:15:37;;;;;;;10.23;4.78;;;9.30;99.90;;;;;;5091651;28;20034;-72
2021/03/29 03:18:06;;;;;;;10.75;4.78;;;9.30;99.90;;;;;;5091711;28;20036;-71
2021/03/29 03:20:33;;;;;;;10.45;4.90;;;9.30;99.90;;;;;;5099964;28;20549;-72
2021/03/29 03:23:02;;;;;;;10.27;4.40;;;9.30;99.90;;;;;;5096354;28;20031;-72
2021/03/29 03:25:30;;;;;;;12.25;4.53;;;9.30;99.90;;;;;;5091110;28;20020;-71
2021/03/29 03:27:59;;;;;;;11.10;5.43;;;9.30;99.90;;;;;;5090553;28;20024;-71
2021/03/29 03:30:30;;;;;;;13.30;4.50;;;9.20;99.90;;;;;;5090455;28;20395;-72
2021/03/29 03:32:56;;;;;;;13.00;4.68;;;9.20;99.90;;;;;;5104186;28;20086;-71
2021/03/29 03:35:28;;;;;;;17.63;4.90;;;9.20;99.90;;;;;;5110305;28;20020;-72
2021/03/29 03:37:54;;;;;;;17.40;5.00;;;9.20;99.90;;;;;;5111903;28;20656;-71
2021/03/29 03:40:22;;;;;;;11.68;5.07;;;9.10;99.90;;;;;;5111040;28;20489;-71
2021/03/29 03:42:50;;;;;;;8.35;4.97;;;9.10;99.90;;;;;;5111188;28;20043;-71
2021/03/29 03:45:21;;;;;;;15.63;4.57;;;9.10;99.90;;;;;;5110801;28;20032;-71
2021/03/29 03:47:47;;;;;;;15.45;5.25;;;9.10;99.90;;;;;;5110883;28;20031;-71
2021/03/29 03:50:14;;;;;;;18.05;5.63;;;9.10;99.90;;;;;;5110665;28;20030;-72
2021/03/29 03:52:41;;;;;;;17.45;5.32;;;9.10;99.90;;;;;;5104066;28;20036;-72
2021/03/29 03:55:11;;;;;;;12.48;4.82;;;9.10;99.90;;;;;;5090842;28;20059;-71
2021/03/29 03:57:41;;;;;;;14.85;5.25;;;9.00;99.90;;;;;;5092391;28;20391;-72
2021/03/29 04:00:11;;;;;;;14.45;5.35;;;8.90;99.90;;;;;;5103742;28;20051;-72
2021/03/29 04:02:36;;;;;;;7.93;4.55;;;8.90;99.90;;;;;;5111029;28;20038;-72
2021/03/29 04:05:04;;;;;;;13.38;4.88;;;8.90;99.90;;;;;;5111856;28;20015;-71
2021/03/29 04:07:30;;;;;;;16.17;4.40;;;8.80;99.90;;;;;;5111818;28;20019;-71
2021/03/29 04:09:59;;;;;;;17.08;5.15;;;8.80;99.90;;;;;;5111480;28;20035;-71
2021/03/29 04:12:24;;;;;;;14.77;4.95;;;8.80;99.90;;;;;;5111119;28;20543;-71
2021/03/29 04:14:50;;;;;;;11.77;4.57;;;8.80;99.90;;;;;;5111830;28;20102;-71
2021/03/29 04:17:15;;;;;;;12.48;5.32;;;8.70;99.90;;;;;;5110553;28;20059;-70
2021/03/29 04:19:41;;;;;;;11.35;4.32;;;8.70;99.90;;;;;;5109583;28;20047;-72
2021/03/29 04:22:07;;;;;;;9.15;5.50;;;8.70;99.90;;;;;;5090996;28;20070;-71
2021/03/29 04:24:33;;;;;;;10.25;4.93;;;8.70;99.90;;;;;;5091099;28;20058;-71
2021/03/29 04:26:58;;;;;;;10.80;4.88;;;8.60;99.90;;;;;;5094834;28;20073;-72
2021/03/29 04:29:26;;;;;;;14.60;5.57;;;8.60;99.90;;;;;;5094688;28;20036;-71
2021/03/29 04:31:52;;;;;;;11.93;4.85;;;8.60;99.90;;;;;;5094203;28;20013;-72
2021/03/29 04:34:21;;;;;;;18.48;6.82;;;8.60;99.90;;;;;;5094330;28;20391;-71
2021/03/29 04:36:47;;;;;;;15.32;5.30;;;8.60;99.90;;;;;;5094621;28;20031;-71
2021/03/29 04:39:12;;;;;;;14.10;4.10;;;8.60;99.90;;;;;;5094034;28;20016;-71
2021/03/29 04:41:38;;;;;;;21.70;5.32;;;8.50;99.90;;;;;;5094332;28;20035;-71
2021/03/29 04:44:04;;;;;;;13.40;4.72;;;8.50;99.90;;;;;;5093950;28;20016;-72
2021/03/29 04:46:29;;;;;;;14.75;4.60;;;8.50;99.90;;;;;;5106974;28;20471;-72
2021/03/29 04:48:55;;;;;;;14.52;5.00;;;8.50;99.90;;;;;;5110450;28;20026;-72
2021/03/29 04:51:20;;;;;;;10.93;4.35;;;8.50;99.90;;;;;;5094024;28;20523;-70
2021/03/29 04:53:46;;;;;;;12.20;4.13;;;8.50;99.90;;;;;;5094498;28;20468;-71
2021/03/29 04:56:12;;;;;;;8.85;4.18;;;8.50;99.90;;;;;;5094105;28;20032;-71
2021/03/29 04:58:37;;;;;;;11.85;4.57;;;8.50;99.90;;;;;;5093619;28;20031;-72
2021/03/29 05:01:03;;;;;;;15.27;4.55;;;8.50;99.90;;;;;;5093961;28;20040;-72
2021/03/29 05:03:28;;;;;;;14.95;4.55;;;8.40;99.90;;;;;;5106916;28;20030;-71
2021/03/29 05:05:54;;;;;;;14.55;4.70;;;8.40;99.90;;;;;;5110367;28;20537;-71
2021/03/29 05:08:19;;;;;;;8.73;4.55;;;8.40;99.90;;;;;;5093840;28;20028;-71
2021/03/29 05:10:46;;;;;;;14.02;4.05;;;8.40;99.90;;;;;;5093850;28;20110;-71
2021/03/29 05:13:12;;;;;;;20.52;5.05;;;8.50;99.90;;;;;;5093269;28;20107;-71
2021/03/29 05:15:38;;;;;;;11.57;3.78;;;8.30;99.90;;;;;;5093992;28;20108;-72
2021/03/29 05:18:03;;;;;;;11.68;3.55;;;8.30;99.90;;;;;;5094119;28;20131;-72
2021/03/29 05:20:29;;;;;;;9.32;3.60;;;8.30;99.90;;;;;;5105026;28;20024;-70
2021/03/29 05:22:57;;;;;;;12.93;4.45;;;8.30;99.90;;;;;;5101952;28;20032;-72
2021/03/29 05:25:23;;;;;;;17.73;4.22;;;8.20;99.90;;;;;;5114443;28;20493;-72
2021/03/29 05:27:49;;;;;;;11.40;3.83;;;8.20;99.90;;;;;;5115078;28;20030;-72
2021/03/29 05:30:15;;;;;;;13.18;3.67;;;8.20;99.90;;;;;;5111759;28;20022;-73
2021/03/29 05:32:40;;;;;;;14.23;3.63;;;8.20;99.90;;;;;;5110113;28;20080;-71
2021/03/29 05:35:09;;;;;;;13.15;4.30;;;8.20;99.90;;;;;;5110241;28;20024;-71
2021/03/29 05:37:34;;;;;;;11.65;4.57;;;8.30;99.90;;;;;;5107874;28;20487;-71
2021/03/29 05:40:01;;;;;;;10.13;3.63;;;8.30;99.90;;;;;;5107903;28;20032;-71
2021/03/29 05:42:30;;;;;;;9.10;3.88;;;8.30;99.90;;;;;;5110379;28;20113;-72
2021/03/29 05:45:07;;;;;;;11.77;3.85;;;8.30;99.90;;;;;;5111365;28;20024;-71
2021/03/29 05:47:33;;;;;;;14.60;4.40;;;8.30;99.90;;;;;;5111445;28;20023;-71
2021/03/29 05:50:00;;;;;;;10.90;4.57;;;8.30;99.90;;;;;;5112191;28;20024;-71
2021/03/29 05:52:27;;;;;;;21.58;5.40;;;8.30;99.90;;;;;;5110105;28;20027;-72
2021/03/29 05:54:55;;;;;;;9.23;3.90;;;8.30;99.90;;;;;;5109988;28;20032;-71
2021/03/29 05:57:21;;;;;;;8.70;4.03;;;8.30;99.90;;;;;;5106779;28;20070;-71
2021/03/29 05:59:46;;;;;;;17.33;4.47;;;8.30;99.90;;;;;;5098339;28;20491;-71
2021/03/29 06:02:32;;;;;;;11.75;3.92;;;8.30;99.90;;;;;;5097367;28;20406;-72
2021/03/29 06:04:58;;;;;;;19.58;5.28;;;8.30;99.90;;;;;;5096469;28;20103;-71
2021/03/29 06:07:27;;;;;;;16.00;4.15;;;8.30;99.90;;;;;;5099523;28;20036;-72
2021/03/29 06:09:55;;;;;;;13.23;4.22;;;8.40;99.90;;;;;;5104575;28;20371;-73
2021/03/29 06:12:22;;;;;;;9.77;4.15;;;8.40;99.90;;;;;;5096957;28;20122;-73
2021/03/29 06:14:59;;;;;;;13.05;3.92;;;8.40;99.90;;;;;;5092463;28;20506;-72
2021/03/29 06:17:25;;;;;;;17.55;4.05;;;8.40;99.90;;;;;;5091841;28;20406;-72
2021/03/29 06:20:01;;;;;;;15.02;4.50;;;8.40;99.90;;;;;;5092245;28;20028;-71
2021/03/29 06:22:29;;;;;;;14.95;4.88;;;8.50;99.90;;;;;;5094947;28;20551;-71
2021/03/29 06:25:05;;;;;;;13.60;3.97;;;8.50;99.90;;;;;;5094912;28;20024;-72
2021/03/29 06:27:56;;;;;;;13.73;3.88;;;8.60;99.90;;;;;;5100749;28;20036;-71
2021/03/29 06:30:31;;;;;;;13.65;4.53;;;8.60;99.90;;;;;;5100160;28;20428;-72
2021/03/29 06:33:15;;;;;;;11.32;3.92;;;8.70;99.90;;;;;;5110349;28;20416;-71
2021/03/29 06:35:49;;;;;;;10.63;4.13;;;8.70;99.90;;;;;;5092105;28;20491;-73
2021/03/29 06:38:17;;;;;;;17.30;4.72;;;8.80;99.90;;;;;;5090761;28;20060;-74
2021/03/29 06:40:50;;;;;;;14.40;4.70;;;8.80;99.90;;;;;;5095333;28;20028;-74
2021/03/29 06:43:41;;;;;;;14.18;3.92;;;8.80;99.90;;;;;;5108365;28;20030;-74
2021/03/29 06:46:21;;;;;;;11.52;4.35;;;8.90;99.90;;;;;;5098905;28;20133;-75
2021/03/29 06:48:47;;;;;;;8.10;3.95;;;8.90;99.90;;;;;;5107581;27;20589;-73
2021/03/29 06:51:16;;;;;;;11.77;3.70;;;9.00;99.90;;;;;;5107519;28;20024;-73
2021/03/29 06:53:43;;;;;;;15.00;4.10;;;9.10;99.90;;;;;;5101019;28;20028;-72
2021/03/29 06:56:17;;;;;;;11.80;3.85;;;9.10;99.90;;;;;;5110800;28;20023;-73
2021/03/29 06:58:43;;;;;;;12.98;4.75;;;9.20;99.90;;;;;;5099673;28;20384;-75
2021/03/29 07:01:15;;;;;;;10.55;4.10;;;9.20;99.90;;;;;;5094904;28;20035;-73
2021/03/29 07:03:42;;;;;;;13.43;4.50;;;9.20;99.90;;;;;;5097962;28;20024;-77
2021/03/29 07:06:08;;;;;;;12.52;4.80;;;9.30;99.90;;;;;;5097017;28;20027;-74
2021/03/29 07:08:34;;;;;;;12.30;3.97;;;9.40;99.90;;;;;;5100804;28;20028;-74
2021/03/29 07:11:00;;;;;;;12.60;4.47;;;9.40;99.90;;;;;;5094690;28;20045;-75
2021/03/29 07:13:29;;;;;;;12.30;4.22;;;9.50;99.90;;;;;;5091032;28;20016;-74
2021/03/29 07:15:59;;;;;;;15.00;4.40;;;9.50;99.90;;;;;;5091742;28;20028;-75
2021/03/29 07:18:26;;;;;;;16.08;5.22;;;9.60;99.90;;;;;;5106790;28;20051;-76
2021/03/29 07:20:53;;;;;;;21.45;4.45;;;9.70;99.90;;;;;;5111529;28;20122;-75
2021/03/29 07:23:19;;;;;;;13.95;3.92;;;9.70;99.90;;;;;;5101071;28;20026;-75
2021/03/29 07:25:46;;;;;;;9.88;4.20;;;9.80;99.90;;;;;;5112116;28;20076;-75
2021/03/29 07:28:12;;;;;;;8.32;4.80;;;9.80;99.90;;;;;;5112127;28;20027;-75
2021/03/29 07:30:45;;;;;;;16.48;4.13;;;9.90;99.90;;;;;;5112687;28;20055;-76
2021/03/29 07:33:13;;;;;;;11.63;4.47;;;9.90;99.90;;;;;;5111931;28;20034;-74
2021/03/29 07:35:56;;;;;;;10.55;4.18;;;10.00;99.90;;;;;;5112401;28;20053;-75
2021/03/29 07:38:26;;;;;;;10.40;4.60;;;10.10;99.90;;;;;;5112133;28;20027;-75
2021/03/29 07:40:55;;;;;;;8.30;3.95;;;10.10;99.90;;;;;;5110819;28;20040;-74
2021/03/29 07:43:23;;;;;;;13.00;4.70;;;10.10;99.90;;;;;;5111778;28;20031;-75
2021/03/29 07:46:02;;;;;;;10.35;4.38;;;10.20;99.90;;;;;;5112503;28;20139;-74
2021/03/29 07:48:36;;;;;;;12.60;5.00;;;10.20;99.90;;;;;;5111480;28;20089;-75
2021/03/29 07:51:23;;;;;;;16.00;4.90;;;10.30;99.90;;;;;;5112781;28;20019;-76
2021/03/29 07:53:51;;;;;;;12.50;4.00;;;10.40;99.90;;;;;;5111674;28;20036;-76
2021/03/29 07:56:35;;;;;;;13.13;4.93;;;10.40;99.90;;;;;;5112009;28;20034;-77
2021/03/29 07:59:02;;;;;;;10.88;4.00;;;10.40;99.90;;;;;;5092759;28;20028;-71
2021/03/29 08:01:48;;;;;;;13.07;4.03;;;10.50;99.90;;;;;;5095149;28;20040;-75
2021/03/29 08:04:14;;;;;;;14.00;4.35;;;10.60;99.90;;;;;;5103669;28;20027;-75
2021/03/29 08:06:44;;;;;;;12.43;4.25;;;10.60;99.90;;;;;;5116349;28;20027;-75
2021/03/29 08:09:12;;;;;;;12.73;3.80;;;10.60;99.90;;;;;;5095021;28;20024;-75
2021/03/29 08:11:56;;;;;;;19.35;4.32;;;10.70;99.90;;;;;;5095952;28;20386;-75
2021/03/29 08:14:31;;;;;;;12.55;4.00;;;10.70;99.90;;;;;;5095614;28;20387;-77
2021/03/29 08:16:57;;;;;;;12.85;4.07;;;10.80;99.90;;;;;;5095019;28;20371;-76
2021/03/29 08:19:29;;;;;;;13.18;4.68;;;10.80;99.90;;;;;;5102028;28;20162;-77
2021/03/29 08:21:55;;;;;;;12.07;4.13;;;10.90;99.90;;;;;;5095287;28;20063;-76
2021/03/29 08:24:41;;;;;;;19.92;6.07;;;10.90;99.90;;;;;;5094952;28;20027;-75
2021/03/29 08:27:08;;;;;;;13.85;4.75;;;10.90;99.90;;;;;;5095140;28;20074;-77
2021/03/29 08:29:36;;;;;;;10.80;4.25;;;10.90;99.90;;;;;;5094771;28;20490;-76
2021/03/29 08:32:17;;;;;;;13.48;4.07;;;11.00;99.90;;;;;;5094643;28;20452;-74
2021/03/29 08:34:51;;;;;;;15.63;4.38;;;11.00;99.90;;;;;;5095475;28;20028;-75
2021/03/29 08:37:28;;;;;;;9.70;3.60;;;11.10;99.90;;;;;;5094520;28;20460;-74
2021/03/29 08:39:56;;;;;;;15.40;4.53;;;11.10;99.90;;;;;;5106312;28;20034;-75
2021/03/29 08:42:25;;;;;;;11.82;4.32;;;11.20;99.90;;;;;;5107087;28;20043;-76
2021/03/29 08:44:52;;;;;;;10.60;4.07;;;11.20;99.90;;;;;;5094532;28;20020;-75
2021/03/29 08:47:22;;;;;;;17.52;4.65;;;11.20;99.90;;;;;;5106095;28;20391;-75
2021/03/29 08:49:57;;;;;;;12.73;4.13;;;11.30;99.90;;;;;;5106877;28;20395;-79
2021/03/29 08:52:24;;;;;;;12.93;4.65;;;11.30;99.90;;;;;;5095073;28;20036;-73
2021/03/29 08:54:58;;;;;;;15.93;5.72;;;11.30;99.90;;;;;;5094620;28;20119;-75
2021/03/29 08:57:27;;;;;;;12.68;4.85;;;11.40;99.90;;;;;;5091944;28;20423;-74
2021/03/29 09:00:00;;;;;;;8.45;4.32;;;11.40;99.90;;;;;;5092681;28;20020;-75
2021/03/29 09:02:30;;;;;;;15.23;5.13;;;11.50;99.90;;;;;;5094869;28;20070;-74
2021/03/29 09:04:58;;;;;;;14.93;4.90;;;11.50;99.90;;;;;;5095405;28;20099;-75
2021/03/29 09:07:53;;;;;;;11.93;4.97;;;11.60;99.90;;;;;;5098699;28;20059;-75
2021/03/29 09:10:35;;;;;;;15.38;4.50;;;11.60;99.90;;;;;;5078461;28;20055;-75
2021/03/29 09:13:01;;;;;;;10.77;4.40;;;11.70;99.90;;;;;;5094325;27;20032;-74
2021/03/29 09:15:36;;;;;;;14.32;5.38;;;11.70;99.90;;;;;;5095715;28;20122;-75
2021/03/29 09:18:04;;;;;;;10.90;4.03;;;11.70;99.90;;;;;;5094782;28;20124;-75
2021/03/29 09:20:33;;;;;;;8.65;4.43;;;11.80;99.90;;;;;;5100548;28;20387;-76
2021/03/29 09:23:12;;;;;;;16.77;5.18;;;11.90;99.90;;;;;;5093894;28;20333;-76
2021/03/29 09:25:40;;;;;;;13.32;4.60;;;11.90;99.90;;;;;;5098632;28;20016;-76
2021/03/29 09:31:20;;;;;;;18.60;4.97;;;12.00;99.90;;;;;;5094436;28;20016;-74
2021/03/29 09:33:48;;;;;;;15.68;6.25;;;12.10;99.90;;;;;;5093197;28;20507;-73
2021/03/29 09:36:17;;;;;;;15.35;5.00;;;12.20;99.90;;;;;;5094468;28;20049;-74
2021/03/29 09:38:50;;;;;;;13.55;5.00;;;12.30;99.90;;;;;;5095561;28;20145;-75
2021/03/29 09:41:24;;;;;;;13.77;4.50;;;12.30;99.90;;;;;;5097088;28;20040;-75
2021/03/29 09:44:05;;;;;;;15.77;4.30;;;12.40;99.90;;;;;;5094093;28;20448;-75
2021/03/29 09:46:32;;;;;;;8.93;4.47;;;12.40;99.90;;;;;;5093397;28;20479;-75
2021/03/29 09:49:09;;;;;;;16.00;4.88;;;12.50;99.90;;;;;;5107653;28;20085;-75
2021/03/29 09:51:35;;;;;;;10.13;4.43;;;12.50;99.90;;;;;;5095249;28;20108;-74
2021/03/29 09:54:27;;;;;;;13.95;5.38;;;12.60;99.90;;;;;;5092978;28;20032;-74
2021/03/29 09:56:54;;;;;;;8.85;4.57;;;12.60;99.90;;;;;;5093631;28;20016;-75
2021/03/29 09:59:30;;;;;;;14.93;4.40;;;12.60;99.90;;;;;;5093428;28;20020;-74
2021/03/29 10:01:58;;;;;;;12.73;4.57;;;12.70;99.90;;;;;;5095380;28;20425;-74
2021/03/29 10:04:24;;;;;;;14.60;4.80;;;12.80;99.90;;;;;;5107355;28;20184;-76
2021/03/29 10:06:54;;;;;;;10.23;4.40;;;12.80;99.90;;;;;;5099508;28;20035;-74
2021/03/29 10:09:36;;;;;;;16.35;5.65;;;12.90;99.90;;;;;;5102658;27;20030;-74
2021/03/29 10:12:03;;;;;;;10.07;4.10;;;13.00;99.90;;;;;;5102121;28;20088;-75
2021/03/29 10:14:38;;;;;;;13.75;5.32;;;13.00;99.90;;;;;;5098099;28;20070;-76
2021/03/29 10:17:19;;;;;;;8.48;5.15;;;13.10;99.90;;;;;;5099097;28;20028;-76
2021/03/29 10:19:46;;;;;;;5.68;4.88;;;13.10;99.90;;;;;;5107075;28;20044;-72
2021/03/29 10:22:19;;;;;;;10.85;4.97;;;13.20;99.90;;;;;;5112118;28;20031;-72
2021/03/29 10:25:07;;;;;;;13.45;5.70;;;13.30;99.90;;;;;;5103062;28;20505;-76
2021/03/29 10:27:50;;;;;;;12.93;5.20;;;13.30;99.90;;;;;;5095298;28;20060;-76
2021/03/29 10:30:19;;;;;;;17.05;5.53;;;13.40;99.90;;;;;;5094437;28;20024;-76
2021/03/29 10:32:51;;;;;;;16.75;5.38;;;13.40;99.90;;;;;;5095580;28;20077;-76
2021/03/29 10:35:21;;;;;;;10.85;4.97;;;13.50;99.90;;;;;;5097085;28;20524;-77
2021/03/29 10:37:48;;;;;;;10.60;5.32;;;13.50;99.90;;;;;;5097627;28;20039;-76
2021/03/29 10:40:14;;;;;;;20.13;6.25;;;13.50;99.90;;;;;;5094727;28;20023;-75
2021/03/29 10:42:41;;;;;;;17.02;5.55;;;13.60;99.90;;;;;;5094318;28;20036;-75
2021/03/29 10:45:10;;;;;;;8.90;5.28;;;13.60;99.90;;;;;;5092679;28;20480;-76
2021/03/29 10:47:36;;;;;;;7.75;4.28;;;13.70;99.90;;;;;;5108272;28;20034;-75
2021/03/29 10:50:04;;;;;;;13.95;5.30;;;13.70;99.90;;;;;;5112580;28;20073;-76
2021/03/29 10:52:30;;;;;;;8.57;4.60;;;13.80;99.90;;;;;;5097813;28;20012;-76
2021/03/29 10:54:55;;;;;;;9.52;4.80;;;13.80;99.90;;;;;;5112665;28;20108;-76
2021/03/29 10:57:21;;;;;;;9.63;4.90;;;13.90;99.90;;;;;;5104444;28;20055;-75
2021/03/29 10:59:46;;;;;;;13.40;5.53;;;13.90;99.90;;;;;;5104044;28;20096;-75
2021/03/29 11:02:13;;;;;;;13.48;4.85;;;14.00;99.90;;;;;;5096249;28;20119;-76
2021/03/29 11:04:38;;;;;;;11.15;4.72;;;14.00;99.90;;;;;;5099999;28;20050;-76
2021/03/29 11:07:04;;;;;;;15.88;5.80;;;14.10;99.90;;;;;;5112079;28;20362;-75
2021/03/29 11:09:30;;;;;;;11.82;4.63;;;14.10;99.90;;;;;;5104155;28;20468;-75
2021/03/29 11:11:55;;;;;;;15.50;5.40;;;14.10;99.90;;;;;;5102955;28;20019;-76
2021/03/29 11:14:21;;;;;;;13.45;5.85;;;14.20;99.90;;;;;;5112288;28;20064;-74
2021/03/29 11:16:51;;;;;;;17.25;5.63;;;14.30;99.90;;;;;;5105213;28;20434;-76
2021/03/29 11:19:18;;;;;;;7.73;4.73;;;14.40;99.90;;;;;;5109406;28;20047;-75
2021/03/29 11:21:44;;;;;;;12.70;6.18;;;14.40;99.90;;;;;;5106855;28;20314;-75
2021/03/29 11:24:12;;;;;;;15.20;6.05;;;14.40;99.90;;;;;;5092166;28;20104;-75
2021/03/29 11:26:38;;;;;;;11.85;5.45;;;14.50;99.90;;;;;;5092744;28;20036;-75
2021/03/29 11:29:07;;;;;;;12.00;4.78;;;14.60;99.90;;;;;;5093574;28;20043;-75
2021/03/29 11:31:35;;;;;;;11.45;5.28;;;14.60;99.90;;;;;;5095662;28;20031;-76
2021/03/29 11:34:01;;;;;;;12.68;5.20;;;14.70;99.90;;;;;;5097717;28;20095;-75
2021/03/29 11:36:27;;;;;;;10.07;5.97;;;14.80;99.90;;;;;;5110699;28;20066;-76
2021/03/29 11:38:57;;;;;;;16.15;6.07;;;14.80;99.90;;;;;;5116962;28;20135;-76
2021/03/29 11:41:23;;;;;;;6.22;5.07;;;14.90;99.90;;;;;;5109938;28;20032;-75
2021/03/29 11:43:50;;;;;;;15.13;5.20;;;14.90;99.90;;;;;;5108595;28;20038;-76
2021/03/29 11:46:15;;;;;;;14.25;5.10;;;15.00;99.90;;;;;;5109348;28;20119;-75
2021/03/29 11:48:41;;;;;;;13.63;5.00;;;15.10;99.90;;;;;;5100776;28;20416;-78
2021/03/29 11:51:07;;;;;;;10.60;4.97;;;15.10;99.90;;;;;;5096489;28;20052;-76
2021/03/29 11:53:34;;;;;;;13.63;5.57;;;15.10;99.90;;;;;;5102311;28;20068;-78
2021/03/29 11:56:00;;;;;;;13.95;5.78;;;15.20;99.90;;;;;;5107888;28;20020;-77
2021/03/29 11:58:26;;;;;;;13.10;4.85;;;15.30;99.90;;;;;;5099840;28;20027;-73
2021/03/29 12:00:58;;;;;;;11.65;5.45;;;15.40;99.30;;;;;;5096154;28;20107;-76
2021/03/29 12:03:39;;;;;;;9.13;5.10;;;15.50;99.20;;;;;;5103337;28;20425;-76
2021/03/29 12:06:16;;;;;;;11.25;4.82;;;15.50;96.80;;;;;;5095905;28;20032;-77
2021/03/29 12:08:48;;;;;;;8.05;4.75;;;15.60;97.20;;;;;;5107317;28;20098;-77
2021/03/29 12:13:59;;;;;;;12.07;4.30;;;15.70;95.90;;;;;;5109336;28;20170;-74
2021/03/29 12:16:27;;;;;;;10.60;4.60;;;15.80;94.90;;;;;;5106393;28;20027;-76
2021/03/29 12:18:57;;;;;;;9.43;5.10;;;15.90;94.40;;;;;;5115825;28;20059;-78
2021/03/29 12:21:34;;;;;;;12.43;4.40;;;16.00;94.60;;;;;;5111681;28;20048;-78
2021/03/29 12:24:06;;;;;;;9.60;4.38;;;16.10;94.40;;;;;;5096276;28;20035;-78
2021/03/29 12:26:32;;;;;;;9.68;5.25;;;16.20;94.20;;;;;;5094960;28;20055;-77
2021/03/29 12:28:59;;;;;;;9.98;4.32;;;16.20;93.70;;;;;;5094756;28;20487;-77
2021/03/29 12:31:25;;;;;;;8.57;4.88;;;16.30;94.90;;;;;;5109809;28;20032;-77
2021/03/29 12:33:52;;;;;;;6.38;4.05;;;16.40;93.60;;;;;;5095798;28;20031;-77
2021/03/29 12:36:20;;;;;;;8.13;4.75;;;16.40;92.10;;;;;;5106656;28;20039;-77
2021/03/29 12:38:55;;;;;;;10.60;5.40;;;16.50;91.20;;;;;;5104780;28;20103;-77
2021/03/29 12:41:22;;;;;;;8.90;4.93;;;16.50;91.30;;;;;;5104005;27;20078;-77
2021/03/29 12:43:57;;;;;;;9.38;4.40;;;16.60;91.90;;;;;;5112484;28;20019;-77
2021/03/29 12:46:23;;;;;;;7.32;4.15;;;16.70;91.50;;;;;;5114271;27;20107;-76
2021/03/29 12:48:50;;;;;;;10.95;5.47;;;16.70;90.00;;;;;;5115264;28;20114;-76
2021/03/29 12:51:15;;;;;;;11.48;5.15;;;16.90;90.40;;;;;;5108188;28;20024;-77
2021/03/29 12:53:43;;;;;;;8.18;4.22;;;16.90;88.00;;;;;;5095247;28;20039;-77
2021/03/29 12:56:09;;;;;;;10.50;5.03;;;17.00;87.00;;;;;;5100310;28;20060;-77
2021/03/29 12:58:36;;;;;;;10.05;4.45;;;17.10;88.30;;;;;;5100039;28;20416;-77
2021/03/29 13:01:09;;;;;;;16.10;5.25;;;17.20;89.80;;;;;;5098591;28;20067;-77